Weather observations for the past three days for
Modesto City-County Airport - Harry Sham Field
| Date | Time (pdt) | Wind (mph) | Vis. (mi.) | Weather | Sky Cond. | Temperature (ºF) | Relative Humidity | Wind Chill (°F) | Heat Index (°F) | Pressure | Precipitation (in) | ||||||
|---|---|---|---|---|---|---|---|---|---|---|---|---|---|---|---|---|---|
| Air | Dwpt | 6 hour | altimeter (in) | sea level (mb) | 1 hr | 3 hr | 6 hr | ||||||||||
| Max. | Min. | ||||||||||||||||
| 02 | 14:53 | N 12 | 10.00 | Fair | CLR | 75 | 53.1 | 46% | 78 | 29.84 | 1010.3 | ||||||
| 02 | 13:53 | NW 8 | 10.00 | Fair | CLR | 75.9 | 53.1 | 45% | 78 | 29.85 | 1010.7 | ||||||
| 02 | 12:53 | NW 8 | 10.00 | Fair | CLR | 73 | 52 | 48% | 29.87 | 1011.5 | |||||||
| 02 | 11:53 | NW 10 | 10.00 | Fair | CLR | 70 | 53.1 | 55% | 29.89 | 1012.0 | |||||||
| 02 | 10:53 | N 8 | 10.00 | Fair | CLR | 66.9 | 52 | 66.9 | 55.9 | 59% | 29.89 | 1012.0 | |||||
| 02 | 09:53 | N 7 | 10.00 | Fair | CLR | 64 | 52 | 65% | 29.89 | 1012.2 | |||||||
| 02 | 08:53 | N 7 | 10.00 | Fair | CLR | 63 | 52 | 68% | 29.88 | 1011.7 | |||||||
| 02 | 07:53 | NW 10 | 10.00 | Fair | CLR | 60.1 | 51.1 | 72% | 29.88 | 1011.5 | |||||||
| 02 | 06:53 | NW 8 | 10.00 | Fair | CLR | 57 | 51.1 | 81% | 29.86 | 1011.0 | |||||||
| 02 | 05:53 | NW 9 | 10.00 | Fair | CLR | 55.9 | 50 | 81% | 29.84 | 1010.2 | |||||||
| 02 | 04:53 | NW 10 | 9.00 | Fair | CLR | 57 | 50 | 66.9 | 57 | 78% | 29.84 | 1010.3 | |||||
| 02 | 03:53 | NW 8 | 10.00 | Fair | CLR | 57 | 50 | 78% | 29.84 | 1010.4 | |||||||
| 02 | 02:53 | N 6 | 10.00 | Fair | CLR | 60.1 | 51.1 | 72% | 29.84 | 1010.4 | |||||||
| 02 | 01:53 | N 6 | 10.00 | Fair | CLR | 62.1 | 51.1 | 67% | 29.86 | 1011.0 | |||||||
| 02 | 00:53 | N 7 | 10.00 | Fair | CLR | 63 | 54 | 73% | 29.86 | 1011.2 | |||||||
| 01 | 23:53 | N 7 | 10.00 | Fair | CLR | 64.9 | 50 | 59% | 29.87 | 1011.2 | |||||||
| 01 | 22:53 | NW 9 | 10.00 | Fair | CLR | 66.9 | 52 | 84.9 | 66.9 | 59% | 29.86 | 1011.1 | |||||
| 01 | 21:53 | NW 8 | 10.00 | Fair | CLR | 71.1 | 50 | 47% | 29.86 | 1010.9 | |||||||
| 01 | 20:53 | NW 8 | 10.00 | Fair | CLR | 75 | 53.1 | 46% | 78 | 29.84 | 1010.4 | ||||||
| 01 | 19:53 | NW 8 | 10.00 | Fair | CLR | 78.1 | 53.1 | 42% | 79 | 29.82 | 1009.6 | ||||||
| 01 | 18:53 | N 12 | 10.00 | Fair | CLR | 81 | 54 | 39% | 81 | 29.81 | 1009.4 | ||||||
| 01 | 17:53 | N 10 | 10.00 | Fair | CLR | 84 | 53.1 | 34% | 83 | 29.82 | 1009.6 | ||||||
| 01 | 16:53 | N 12 | 10.00 | Fair | CLR | 84.9 | 53.1 | 84.9 | 72 | 33% | 83 | 29.82 | 1009.7 | ||||
| 01 | 15:53 | N 9 | 10.00 | Fair | CLR | 84 | 54 | 36% | 83 | 29.85 | 1010.5 | ||||||
| 01 | 14:53 | NW 10 | 10.00 | Fair | CLR | 82.9 | 53.1 | 36% | 82 | 29.87 | 1011.4 | ||||||
| 01 | 13:53 | Vrbl 5 | 10.00 | Fair | CLR | 82 | 48.9 | 32% | 81 | 29.89 | 1011.9 | ||||||
| 01 | 12:53 | NW 5 | 10.00 | Fair | CLR | 78.1 | 48 | 35% | 78 | 29.91 | 1012.6 | ||||||
| 01 | 11:53 | Calm | 10.00 | Fair | CLR | 75.9 | 48 | 37% | 78 | 29.93 | 1013.3 | ||||||
| 01 | 10:53 | Vrbl 5 | 10.00 | Fair | CLR | 72 | 48 | 72 | 55 | 43% | 29.94 | 1013.8 | |||||
| 01 | 09:53 | Calm | 10.00 | Fair | CLR | 68 | 48 | 49% | 29.95 | 1014.0 | |||||||
| 01 | 08:53 | NW 3 | 10.00 | Fair | CLR | 63 | 48.9 | 60% | 29.94 | 1014.0 | |||||||
| 01 | 07:53 | N 3 | 10.00 | Fair | CLR | 60.1 | 48.9 | 67% | 29.94 | 1013.7 | |||||||
| 01 | 06:53 | N 5 | 10.00 | Fair | CLR | 57 | 48 | 72% | 29.91 | 1012.7 | |||||||
| 01 | 05:53 | N 3 | 6.00 | Fair with Haze | CLR | 57 | 48 | 72% | 29.89 | 1012.1 | |||||||
| 01 | 04:53 | Calm | 10.00 | Fair | CLR | 57 | 48 | 66.9 | 57 | 72% | 29.89 | 1012.0 | |||||
| 01 | 03:53 | N 3 | 10.00 | Fair | CLR | 57.9 | 46.9 | 67% | 29.88 | 1011.8 | |||||||
| 01 | 02:53 | N 7 | 10.00 | Fair | CLR | 60.1 | 46.9 | 62% | 29.87 | 1011.5 | |||||||
| 01 | 01:53 | N 5 | 10.00 | Fair | CLR | 61 | 46 | 58% | 29.88 | 1011.8 | |||||||
| 01 | 00:53 | N 7 | 10.00 | Fair | CLR | 62.1 | 46.9 | 58% | 29.88 | 1011.8 | |||||||
| 30 | 23:53 | N 5 | 10.00 | Fair | CLR | 63 | 48 | 58% | 29.88 | 1011.7 | |||||||
| 30 | 22:53 | N 6 | 10.00 | Fair | CLR | 66.9 | 46.9 | 84 | 66 | 49% | 29.88 | 1011.6 | |||||
| 30 | 21:53 | NW 7 | 10.00 | Fair | CLR | 68 | 46.9 | 47% | 29.87 | 1011.6 | |||||||
| 30 | 20:53 | NW 9 | 10.00 | Fair | CLR | 73 | 46 | 38% | 29.86 | 1011.1 | |||||||
| 30 | 19:53 | NW 9 | 10.00 | Fair | CLR | 75.9 | 50 | 40% | 78 | 29.84 | 1010.4 | ||||||
| 30 | 18:53 | N 13 G 22 | 10.00 | Fair | CLR | 81 | 46 | 29% | 80 | 29.83 | 1010.1 | ||||||
| 30 | 17:53 | NW 13 | 10.00 | Fair | CLR | 82.9 | 48 | 30% | 81 | 29.83 | 1010.1 | ||||||
| 30 | 16:53 | N 14 | 10.00 | Fair | CLR | 82.9 | 46.9 | 84.9 | 70 | 28% | 81 | 29.83 | 1010.2 | ||||
| 30 | 15:53 | N 8 G 18 | 10.00 | Fair | CLR | 82 | 48 | 31% | 81 | 29.85 | 1010.6 | ||||||
| 30 | 14:53 | NW 13 G 21 | 10.00 | Fair | CLR | 82 | 46 | 28% | 80 | 29.87 | 1011.4 | ||||||
| 30 | 13:53 | NW 12 G 20 | 10.00 | Fair | CLR | 80.1 | 50 | 35% | 80 | 29.89 | 1012.0 | ||||||
| 30 | 12:53 | N 8 G 16 | 10.00 | Fair | CLR | 79 | 51.1 | 38% | 79 | 29.91 | 1012.6 | ||||||
| 30 | 11:53 | NW 8 | 10.00 | Fair | CLR | 75 | 48.9 | 40% | 77 | 29.93 | 1013.3 | ||||||
| 30 | 10:53 | N 9 | 10.00 | Fair | CLR | 70 | 48 | 70 | 53.1 | 46% | 29.94 | 1013.7 | |||||
| 30 | 09:53 | NW 9 | 10.00 | Fair | CLR | 68 | 46 | 45% | 29.94 | 1013.9 | |||||||
| 30 | 08:53 | N 5 | 10.00 | Fair | CLR | 63 | 48 | 58% | 29.94 | 1013.9 | |||||||
| 30 | 07:53 | N 8 | 10.00 | Fair | CLR | 59 | 46.9 | 64% | 29.94 | 1013.8 | |||||||
| 30 | 06:53 | NW 3 | 10.00 | Fair | CLR | 54 | 46 | 75% | 29.94 | 1013.7 | |||||||
| 30 | 05:53 | Calm | 10.00 | Fair | CLR | 53.1 | 45 | 74% | 29.93 | 1013.4 | |||||||
| 30 | 04:53 | W 3 | 10.00 | Fair | CLR | 55 | 44.1 | 64.9 | 54 | 67% | 29.93 | 1013.5 | |||||
| 30 | 03:53 | Calm | 10.00 | Fair | CLR | 57 | 42.1 | 58% | 29.94 | 1013.6 | |||||||
| 30 | 02:53 | N 6 | 10.00 | Fair | CLR | 57.9 | 42.1 | 56% | 29.94 | 1013.7 | |||||||
| 30 | 01:53 | N 5 | 10.00 | Fair | CLR | 59 | 44.1 | 58% | 29.95 | 1014.1 | |||||||
| 30 | 00:53 | N 5 | 10.00 | Fair | CLR | 60.1 | 46.9 | 62% | 29.96 | 1014.6 | |||||||
| 29 | 23:53 | N 5 | 10.00 | Fair | CLR | 62.1 | 48 | 60% | 29.97 | 1014.7 | |||||||
| 29 | 22:53 | NE 6 | 10.00 | Fair | CLR | 64.9 | 46 | 81 | 64 | 51% | 29.97 | 1014.8 | |||||
| 29 | 21:53 | NW 9 | 10.00 | Fair | CLR | 64.9 | 46.9 | 52% | 29.96 | 1014.6 | |||||||
| 29 | 20:53 | NW 13 | 10.00 | Fair | CLR | 70 | 46.9 | 44% | 29.95 | 1014.0 | |||||||
| 29 | 19:53 | NW 9 | 10.00 | Fair | CLR | 73 | 43 | 34% | 29.92 | 1013.2 | |||||||
| 29 | 18:53 | N 10 | 10.00 | Fair | CLR | 77 | 45 | 32% | 78 | 29.92 | 1013.1 | ||||||
| 29 | 17:53 | N 9 | 10.00 | Fair | CLR | 79 | 44.1 | 29% | 79 | 29.93 | 1013.4 | ||||||
| 29 | 16:53 | NW 8 | 10.00 | Fair | CLR | 80.1 | 43 | 81 | 70 | 27% | 79 | 29.94 | 1013.8 | ||||
| 29 | 15:53 | N 9 | 10.00 | Fair | CLR | 80.1 | 46 | 30% | 79 | 29.96 | 1014.5 | ||||||
| Date | Time (pdt) | Wind (mph) | Vis. (mi.) | Weather | Sky Cond. | Air | Dwpt | Max. | Min. | Relative Humidity | Wind Chill (°F) | Heat Index (°F) | altimeter (in) | sea level (mb) | 1 hr | 3 hr | 6 hr |
| 6 hour | |||||||||||||||||
| Temperature (ºF) | Pressure | Precipitation (in) | |||||||||||||||